Time;durP1;ratioP1;P1;durP2;ratioP2;P2;SDS_P1;SDS_P2;PMS_P1;PMS_P2;Temp;Humidity;BMP_temperature;BMP_pressure;BME280_temperature;BME280_humidity;BME280_pressure;Samples;Min_cycle;Max_cycle;Signal;HPM_P1;HPM_P2
2022/06/23 00:00:05;;;;;;;;;;;;;;;;;;351444;28;916;-73
2022/06/23 00:00:30;;;;;;;;;;;;;;;;;;351352;28;1361;-73
2022/06/23 00:00:40;;;;;;;;;;;;;;;;;;351309;28;1197;-73
2022/06/23 00:00:56;;;;;;;;;;;;;;;;;;351432;28;932;-73
2022/06/23 00:01:14;;;;;;;;;;;;;;;;;;351430;28;841;-73
2022/06/23 00:01:27;;;;;;;;;;;;;;;;;;351407;28;1019;-73
2022/06/23 00:01:53;;;;;;;;;;;;;;;;;;351389;28;925;-73
2022/06/23 00:02:06;;;;;;;;;;;;;;;;;;351418;28;914;-73
2022/06/23 00:02:21;;;;;;;;;;;;;;;;;;351461;28;980;-73
2022/06/23 00:02:33;;;;;;;;;;;;;;;;;;351448;28;876;-73
2022/06/23 00:02:44;;;;;;;;;;;;;;;;;;351494;28;928;-73
2022/06/23 00:02:56;;;;;;;;;;;;;;;;;;351452;28;983;-73
2022/06/23 00:03:07;;;;;;;;;;;;;;;;;;351372;28;861;-73
2022/06/23 00:03:19;;;;;;;;;;;;;;;;;;351442;28;1959;-73
2022/06/23 00:03:32;;;;;;;;;;;;;;;;;;351383;28;1016;-73
2022/06/23 00:03:44;;;;;;;;;;;;;;;;;;351449;28;829;-73
2022/06/23 00:03:55;;;;;;;;;;;;;;;;;;351445;28;979;-73
2022/06/23 00:04:10;;;;;;;;;;;;;;;;;;351454;28;971;-73
2022/06/23 00:04:21;;;;;;;;;;;;;;;;;;351433;28;980;-73
2022/06/23 00:04:40;;;;;;;;;;;;;;;;;;351495;28;837;-73
2022/06/23 00:04:52;;;;;;;;;;;;;;;;;;351390;28;1007;-73
2022/06/23 00:05:07;;;;;;;;;;;;;;;;;;351388;28;813;-73
2022/06/23 00:05:18;;;;;;;;;;;;;;;;;;351385;28;924;-73
2022/06/23 00:05:34;;;;;;;;;;;;;;;;;;351275;28;1236;-73
2022/06/23 00:05:48;;;;;;;;;;;;;;;;;;351428;28;933;-73
2022/06/23 00:06:00;;;;;;;;;;;;;;;;;;351358;28;996;-72
2022/06/23 00:06:26;;;;;;;;;;;;;;;;;;351345;28;1139;-73
2022/06/23 00:06:40;;;;;;;;;;;;;;;;;;351404;28;916;-73
2022/06/23 00:07:01;;;;;;;;;;;;;;;;;;351453;28;928;-73
2022/06/23 00:07:15;;;;;;;;;;;;;;;;;;351435;28;956;-73
2022/06/23 00:07:27;;;;;;;;;;;;;;;;;;350706;28;1327;-73
2022/06/23 00:07:38;;;;;;;;;;;;;;;;;;349746;28;1330;-73
2022/06/23 00:07:51;;;;;;;;;;;;;;;;;;351262;28;769;-73
2022/06/23 00:08:04;;;;;;;;;;;;;;;;;;351389;28;920;-73
2022/06/23 00:08:15;;;;;;;;;;;;;;;;;;351430;28;979;-72
2022/06/23 00:08:25;;;;;;;;;;;;;;;;;;351463;28;917;-73
2022/06/23 00:08:45;;;;;;;;;;;;;;;;;;351427;28;956;-73
2022/06/23 00:08:56;;;;;;;;;;;;;;;;;;351485;28;987;-73
2022/06/23 00:09:25;;;;;;;;;;;;;;;;;;351376;28;976;-73
2022/06/23 00:09:39;;;;;;;;;;;;;;;;;;351414;28;928;-73
2022/06/23 00:09:54;;;;;;;;;;;;;;;;;;351428;28;912;-73
2022/06/23 00:10:30;;;;;;;;;;;;;;;;;;351345;28;988;-73
2022/06/23 00:10:44;;;;;;;;;;;;;;;;;;349163;28;1114;-73
2022/06/23 00:10:56;;;;;;;;;;;;;;;;;;351429;28;976;-73
2022/06/23 00:11:18;;;;;;;;;;;;;;;;;;351375;28;964;-73
2022/06/23 00:11:28;;;;;;;;;;;;;;;;;;351423;28;853;-73
2022/06/23 00:11:47;;;;;;;;;;;;;;;;;;351395;28;952;-73
2022/06/23 00:11:57;;;;;;;;;;;;;;;;;;351426;28;932;-73
2022/06/23 00:12:16;;;;;;;;;;;;;;;;;;351331;28;871;-73
2022/06/23 00:12:29;;;;;;;;;;;;;;;;;;351431;28;929;-73
2022/06/23 00:12:40;;;;;;;;;;;;;;;;;;351326;28;1039;-73
2022/06/23 00:12:51;;;;;;;;;;;;;;;;;;351416;28;1087;-73
2022/06/23 00:13:03;;;;;;;;;;;;;;;;;;351477;28;809;-73
2022/06/23 00:13:15;;;;;;;;;;;;;;;;;;351378;28;913;-73
2022/06/23 00:13:31;;;;;;;;;;;;;;;;;;351452;28;881;-72
2022/06/23 00:13:41;;;;;;;;;;;;;;;;;;351376;28;991;-73
2022/06/23 00:14:01;;;;;;;;;;;;;;;;;;351381;28;845;-72
2022/06/23 00:14:13;;;;;;;;;;;;;;;;;;351386;28;948;-73
2022/06/23 00:14:24;;;;;;;;;;;;;;;;;;351414;28;1011;-73
2022/06/23 00:14:35;;;;;;;;;;;;;;;;;;351475;28;928;-73
2022/06/23 00:14:46;;;;;;;;;;;;;;;;;;351429;28;971;-73
2022/06/23 00:15:02;;;;;;;;;;;;;;;;;;351395;28;921;-73
2022/06/23 00:15:13;;;;;;;;;;;;;;;;;;351417;28;908;-73
2022/06/23 00:15:27;;;;;;;;;;;;;;;;;;351454;28;984;-73
2022/06/23 00:15:39;;;;;;;;;;;;;;;;;;351380;28;984;-73
2022/06/23 00:15:51;;;;;;;;;;;;;;;;;;351487;28;947;-73
2022/06/23 00:16:03;;;;;;;;;;;;;;;;;;351335;28;1012;-72
2022/06/23 00:16:26;;;;;;;;;;;;;;;;;;351428;28;983;-73
2022/06/23 00:16:36;;;;;;;;;;;;;;;;;;351355;28;928;-73
2022/06/23 00:16:46;;;;;;;;;;;;;;;;;;351452;28;978;-72
2022/06/23 00:17:13;;;;;;;;;;;;;;;;;;351455;28;904;-73
2022/06/23 00:17:23;;;;;;;;;;;;;;;;;;351413;28;928;-73
2022/06/23 00:17:37;;;;;;;;;;;;;;;;;;351366;28;837;-73
2022/06/23 00:17:56;;;;;;;;;;;;;;;;;;350300;28;1438;-73
2022/06/23 00:18:14;;;;;;;;;;;;;;;;;;351353;28;980;-73
2022/06/23 00:18:26;;;;;;;;;;;;;;;;;;351452;28;781;-73
2022/06/23 00:18:37;;;;;;;;;;;;;;;;;;351470;28;976;-73
2022/06/23 00:18:47;;;;;;;;;;;;;;;;;;351415;28;845;-73
2022/06/23 00:18:58;;;;;;;;;;;;;;;;;;351420;28;816;-73
2022/06/23 00:19:14;;;;;;;;;;;;;;;;;;351424;28;1035;-73
2022/06/23 00:19:24;;;;;;;;;;;;;;;;;;351451;28;896;-73
2022/06/23 00:19:35;;;;;;;;;;;;;;;;;;351389;28;1003;-73
2022/06/23 00:19:45;;;;;;;;;;;;;;;;;;351409;28;921;-73
2022/06/23 00:19:56;;;;;;;;;;;;;;;;;;351457;28;909;-73
2022/06/23 00:20:20;;;;;;;;;;;;;;;;;;351380;28;848;-73
2022/06/23 00:20:36;;;;;;;;;;;;;;;;;;351390;28;1679;-73
2022/06/23 00:20:57;;;;;;;;;;;;;;;;;;351454;28;992;-73
2022/06/23 00:21:22;;;;;;;;;;;;;;;;;;351305;28;1351;-73
2022/06/23 00:21:33;;;;;;;;;;;;;;;;;;351377;28;909;-73
2022/06/23 00:21:46;;;;;;;;;;;;;;;;;;351448;28;936;-73
2022/06/23 00:21:56;;;;;;;;;;;;;;;;;;351401;28;916;-73
2022/06/23 00:22:09;;;;;;;;;;;;;;;;;;351432;28;899;-73
2022/06/23 00:22:21;;;;;;;;;;;;;;;;;;351361;28;896;-72
2022/06/23 00:22:32;;;;;;;;;;;;;;;;;;351386;28;908;-73
2022/06/23 00:22:45;;;;;;;;;;;;;;;;;;351456;28;1708;-73
2022/06/23 00:22:59;;;;;;;;;;;;;;;;;;351428;28;925;-73
2022/06/23 00:23:09;;;;;;;;;;;;;;;;;;351421;28;916;-73
2022/06/23 00:23:21;;;;;;;;;;;;;;;;;;351318;28;1910;-73
2022/06/23 00:23:33;;;;;;;;;;;;;;;;;;351351;28;1082;-73
2022/06/23 00:23:46;;;;;;;;;;;;;;;;;;351488;28;835;-73
2022/06/23 00:24:00;;;;;;;;;;;;;;;;;;351387;28;904;-73
2022/06/23 00:24:16;;;;;;;;;;;;;;;;;;351439;28;939;-73
2022/06/23 00:24:27;;;;;;;;;;;;;;;;;;351362;28;948;-73
2022/06/23 00:24:39;;;;;;;;;;;;;;;;;;351425;28;960;-73
2022/06/23 00:24:55;;;;;;;;;;;;;;;;;;351475;28;874;-73
2022/06/23 00:25:06;;;;;;;;;;;;;;;;;;351445;28;924;-73
2022/06/23 00:25:35;;;;;;;;;;;;;;;;;;351343;28;1077;-73
2022/06/23 00:25:52;;;;;;;;;;;;;;;;;;351349;28;1018;-73
2022/06/23 00:26:05;;;;;;;;;;;;;;;;;;351435;28;940;-73
2022/06/23 00:26:19;;;;;;;;;;;;;;;;;;351397;28;999;-73
2022/06/23 00:26:32;;;;;;;;;;;;;;;;;;351329;28;1002;-73
2022/06/23 00:26:43;;;;;;;;;;;;;;;;;;351428;28;940;-73
2022/06/23 00:26:53;;;;;;;;;;;;;;;;;;351438;28;920;-73
2022/06/23 00:27:04;;;;;;;;;;;;;;;;;;351384;28;932;-73
2022/06/23 00:27:17;;;;;;;;;;;;;;;;;;351438;28;983;-73
2022/06/23 00:27:29;;;;;;;;;;;;;;;;;;351380;28;912;-73
2022/06/23 00:27:41;;;;;;;;;;;;;;;;;;351347;28;977;-73
2022/06/23 00:27:51;;;;;;;;;;;;;;;;;;350286;28;1455;-73
2022/06/23 00:28:02;;;;;;;;;;;;;;;;;;351479;28;931;-73
2022/06/23 00:28:23;;;;;;;;;;;;;;;;;;351390;28;900;-73
2022/06/23 00:28:35;;;;;;;;;;;;;;;;;;351381;27;931;-73
2022/06/23 00:28:47;;;;;;;;;;;;;;;;;;351372;28;916;-73
2022/06/23 00:29:00;;;;;;;;;;;;;;;;;;351456;28;868;-73
2022/06/23 00:29:13;;;;;;;;;;;;;;;;;;351417;28;864;-73
2022/06/23 00:29:24;;;;;;;;;;;;;;;;;;351403;28;880;-73
2022/06/23 00:29:34;;;;;;;;;;;;;;;;;;351397;28;904;-73
2022/06/23 00:29:45;;;;;;;;;;;;;;;;;;351456;28;789;-72
2022/06/23 00:29:59;;;;;;;;;;;;;;;;;;351475;28;916;-73
2022/06/23 00:30:29;;;;;;;;;;;;;;;;;;351388;28;939;-73
2022/06/23 00:30:42;;;;;;;;;;;;;;;;;;351357;28;1306;-73
2022/06/23 00:30:55;;;;;;;;;;;;;;;;;;351401;28;860;-73
2022/06/23 00:31:06;;;;;;;;;;;;;;;;;;351449;28;876;-73
2022/06/23 00:31:36;;;;;;;;;;;;;;;;;;351462;28;998;-73
2022/06/23 00:31:54;;;;;;;;;;;;;;;;;;351376;28;947;-73
2022/06/23 00:32:05;;;;;;;;;;;;;;;;;;351389;28;964;-73
2022/06/23 00:32:16;;;;;;;;;;;;;;;;;;351418;28;943;-72
2022/06/23 00:32:27;;;;;;;;;;;;;;;;;;351390;28;786;-73
2022/06/23 00:32:37;;;;;;;;;;;;;;;;;;351331;28;939;-73
2022/06/23 00:32:48;;;;;;;;;;;;;;;;;;351485;28;841;-73
2022/06/23 00:33:04;;;;;;;;;;;;;;;;;;351434;28;888;-73
2022/06/23 00:33:20;;;;;;;;;;;;;;;;;;351418;28;1043;-72
2022/06/23 00:33:38;;;;;;;;;;;;;;;;;;351345;28;988;-73
2022/06/23 00:33:48;;;;;;;;;;;;;;;;;;351296;28;1047;-73
2022/06/23 00:34:00;;;;;;;;;;;;;;;;;;351400;28;936;-73
2022/06/23 00:34:15;;;;;;;;;;;;;;;;;;351407;28;1096;-73
2022/06/23 00:34:33;;;;;;;;;;;;;;;;;;351467;28;860;-73
2022/06/23 00:34:50;;;;;;;;;;;;;;;;;;351347;28;971;-73
2022/06/23 00:35:04;;;;;;;;;;;;;;;;;;351387;28;1087;-73
2022/06/23 00:35:16;;;;;;;;;;;;;;;;;;351373;28;1030;-73
2022/06/23 00:35:26;;;;;;;;;;;;;;;;;;351406;28;975;-72
2022/06/23 00:35:36;;;;;;;;;;;;;;;;;;351357;28;980;-73
2022/06/23 00:35:47;;;;;;;;;;;;;;;;;;351346;28;972;-73
2022/06/23 00:35:58;;;;;;;;;;;;;;;;;;351432;28;877;-73
2022/06/23 00:36:38;;;;;;;;;;;;;;;;;;351397;28;983;-73
2022/06/23 00:36:49;;;;;;;;;;;;;;;;;;348416;28;976;-72
2022/06/23 00:37:02;;;;;;;;;;;;;;;;;;348414;28;1310;-73
2022/06/23 00:37:14;;;;;;;;;;;;;;;;;;349443;28;1157;-73
2022/06/23 00:37:25;;;;;;;;;;;;;;;;;;351241;28;1350;-73
2022/06/23 00:37:35;;;;;;;;;;;;;;;;;;351241;28;1495;-73
2022/06/23 00:37:47;;;;;;;;;;;;;;;;;;350639;28;1412;-72
2022/06/23 00:37:57;;;;;;;;;;;;;;;;;;351303;28;916;-73
2022/06/23 00:38:23;;;;;;;;;;;;;;;;;;351380;28;798;-73
2022/06/23 00:38:37;;;;;;;;;;;;;;;;;;351400;28;932;-72
2022/06/23 00:38:48;;;;;;;;;;;;;;;;;;351336;28;912;-73
2022/06/23 00:38:58;;;;;;;;;;;;;;;;;;351389;28;983;-73
2022/06/23 00:39:30;;;;;;;;;;;;;;;;;;351413;28;789;-73
2022/06/23 00:39:42;;;;;;;;;;;;;;;;;;351328;28;908;-73
2022/06/23 00:39:52;;;;;;;;;;;;;;;;;;351423;28;923;-72
2022/06/23 00:40:11;;;;;;;;;;;;;;;;;;351423;28;869;-73
2022/06/23 00:40:23;;;;;;;;;;;;;;;;;;351334;28;991;-73
2022/06/23 00:40:33;;;;;;;;;;;;;;;;;;351399;28;966;-73
2022/06/23 00:40:43;;;;;;;;;;;;;;;;;;351364;28;999;-73
2022/06/23 00:40:55;;;;;;;;;;;;;;;;;;351349;28;1016;-72
2022/06/23 00:41:13;;;;;;;;;;;;;;;;;;351288;28;1027;-73
2022/06/23 00:41:28;;;;;;;;;;;;;;;;;;351406;28;996;-73
2022/06/23 00:41:38;;;;;;;;;;;;;;;;;;351399;28;963;-73
2022/06/23 00:41:49;;;;;;;;;;;;;;;;;;351327;28;931;-73
2022/06/23 00:42:00;;;;;;;;;;;;;;;;;;351417;28;971;-73
2022/06/23 00:42:21;;;;;;;;;;;;;;;;;;351412;28;876;-72
2022/06/23 00:42:31;;;;;;;;;;;;;;;;;;351367;28;808;-73
2022/06/23 00:42:50;;;;;;;;;;;;;;;;;;351370;28;983;-73
2022/06/23 00:43:02;;;;;;;;;;;;;;;;;;351426;28;833;-73
2022/06/23 00:43:13;;;;;;;;;;;;;;;;;;351405;28;857;-73
2022/06/23 00:43:23;;;;;;;;;;;;;;;;;;351268;28;1906;-73
2022/06/23 00:43:34;;;;;;;;;;;;;;;;;;351377;28;940;-73
2022/06/23 00:43:46;;;;;;;;;;;;;;;;;;351379;28;928;-73
2022/06/23 00:43:59;;;;;;;;;;;;;;;;;;351445;28;920;-73
2022/06/23 00:44:15;;;;;;;;;;;;;;;;;;351383;28;860;-72
2022/06/23 00:44:51;;;;;;;;;;;;;;;;;;351435;28;932;-73
2022/06/23 00:45:06;;;;;;;;;;;;;;;;;;349070;28;1035;-73
2022/06/23 00:45:27;;;;;;;;;;;;;;;;;;351404;28;845;-73
2022/06/23 00:45:42;;;;;;;;;;;;;;;;;;351411;27;881;-72
2022/06/23 00:45:55;;;;;;;;;;;;;;;;;;351410;28;1012;-73
2022/06/23 00:46:10;;;;;;;;;;;;;;;;;;351351;28;877;-73
2022/06/23 00:46:26;;;;;;;;;;;;;;;;;;351382;28;913;-73
2022/06/23 00:46:48;;;;;;;;;;;;;;;;;;351363;28;928;-72
2022/06/23 00:47:01;;;;;;;;;;;;;;;;;;351388;28;810;-72
2022/06/23 00:47:17;;;;;;;;;;;;;;;;;;351324;28;892;-72
2022/06/23 00:47:48;;;;;;;;;;;;;;;;;;351417;28;924;-72
2022/06/23 00:48:01;;;;;;;;;;;;;;;;;;349635;28;1176;-73
2022/06/23 00:48:23;;;;;;;;;;;;;;;;;;349965;28;1011;-73
2022/06/23 00:48:42;;;;;;;;;;;;;;;;;;349999;28;940;-73
2022/06/23 00:49:00;;;;;;;;;;;;;;;;;;349972;28;873;-72
2022/06/23 00:49:24;;;;;;;;;;;;;;;;;;349984;28;1059;-73
2022/06/23 00:49:40;;;;;;;;;;;;;;;;;;350004;28;912;-72
2022/06/23 00:49:57;;;;;;;;;;;;;;;;;;349958;28;920;-72
2022/06/23 00:50:26;;;;;;;;;;;;;;;;;;349995;28;904;-73
2022/06/23 00:51:00;;;;;;;;;;;;;;;;;;350047;28;865;-73
2022/06/23 00:51:19;;;;;;;;;;;;;;;;;;345697;28;1023;-72
2022/06/23 00:51:31;;;;;;;;;;;;;;;;;;349804;28;1249;-73
2022/06/23 00:51:45;;;;;;;;;;;;;;;;;;349985;28;862;-73
2022/06/23 00:52:16;;;;;;;;;;;;;;;;;;350035;28;773;-73
2022/06/23 00:52:38;;;;;;;;;;;;;;;;;;349955;28;984;-73
2022/06/23 00:52:51;;;;;;;;;;;;;;;;;;349986;28;936;-73
2022/06/23 00:53:13;;;;;;;;;;;;;;;;;;349941;28;1003;-73
2022/06/23 00:53:32;;;;;;;;;;;;;;;;;;349947;28;952;-73
2022/06/23 00:53:45;;;;;;;;;;;;;;;;;;349930;28;1015;-73
2022/06/23 00:53:58;;;;;;;;;;;;;;;;;;349997;28;948;-73
2022/06/23 00:54:15;;;;;;;;;;;;;;;;;;349977;28;920;-73
2022/06/23 00:54:29;;;;;;;;;;;;;;;;;;349938;28;900;-73
2022/06/23 00:54:42;;;;;;;;;;;;;;;;;;350003;28;999;-72
2022/06/23 00:54:55;;;;;;;;;;;;;;;;;;350018;28;944;-73
2022/06/23 00:55:41;;;;;;;;;;;;;;;;;;349971;28;964;-73
2022/06/23 00:55:56;;;;;;;;;;;;;;;;;;347057;28;881;-73
2022/06/23 00:56:25;;;;;;;;;;;;;;;;;;347045;28;1347;-73
2022/06/23 00:56:53;;;;;;;;;;;;;;;;;;347099;28;924;-73
2022/06/23 00:57:30;;;;;;;;;;;;;;;;;;347040;28;857;-73
2022/06/23 00:57:46;;;;;;;;;;;;;;;;;;343125;28;1008;-72
2022/06/23 00:57:59;;;;;;;;;;;;;;;;;;348077;28;1543;-73
2022/06/23 00:58:27;;;;;;;;;;;;;;;;;;348447;28;1003;-73
2022/06/23 00:58:45;;;;;;;;;;;;;;;;;;348424;28;928;-72
2022/06/23 00:58:59;;;;;;;;;;;;;;;;;;350019;28;892;-72
2022/06/23 00:59:21;;;;;;;;;;;;;;;;;;349889;28;991;-73
2022/06/23 00:59:38;;;;;;;;;;;;;;;;;;349979;28;913;-72
2022/06/23 00:59:55;;;;;;;;;;;;;;;;;;349579;28;1424;-72
2022/06/23 01:00:08;;;;;;;;;;;;;;;;;;350820;28;857;-73
2022/06/23 01:00:21;;;;;;;;;;;;;;;;;;351363;28;998;-73
2022/06/23 01:00:37;;;;;;;;;;;;;;;;;;351320;28;932;-73
2022/06/23 01:00:50;;;;;;;;;;;;;;;;;;349969;28;936;-73
2022/06/23 01:01:04;;;;;;;;;;;;;;;;;;349832;28;1188;-73
2022/06/23 01:01:29;;;;;;;;;;;;;;;;;;349961;28;813;-73
2022/06/23 01:01:49;;;;;;;;;;;;;;;;;;350006;28;774;-73
2022/06/23 01:02:03;;;;;;;;;;;;;;;;;;349959;28;924;-73
2022/06/23 01:02:15;;;;;;;;;;;;;;;;;;350014;28;825;-72
2022/06/23 01:02:46;;;;;;;;;;;;;;;;;;350042;28;994;-72
2022/06/23 01:03:17;;;;;;;;;;;;;;;;;;349761;28;1107;-73
2022/06/23 01:03:30;;;;;;;;;;;;;;;;;;349640;28;2051;-73
2022/06/23 01:03:49;;;;;;;;;;;;;;;;;;349939;28;971;-73
2022/06/23 01:04:03;;;;;;;;;;;;;;;;;;349941;28;1106;-73
2022/06/23 01:04:28;;;;;;;;;;;;;;;;;;349926;28;1215;-73
2022/06/23 01:04:41;;;;;;;;;;;;;;;;;;350048;28;856;-73
2022/06/23 01:05:01;;;;;;;;;;;;;;;;;;349990;28;929;-72
2022/06/23 01:05:30;;;;;;;;;;;;;;;;;;349892;28;948;-72
2022/06/23 01:05:48;;;;;;;;;;;;;;;;;;350006;28;841;-72
2022/06/23 01:05:58;;;;;;;;;;;;;;;;;;349883;28;1003;-73
2022/06/23 01:06:12;;;;;;;;;;;;;;;;;;350000;28;801;-73
2022/06/23 01:06:29;;;;;;;;;;;;;;;;;;349943;28;940;-73
2022/06/23 01:06:41;;;;;;;;;;;;;;;;;;349980;28;849;-73
2022/06/23 01:06:59;;;;;;;;;;;;;;;;;;349889;28;916;-73
2022/06/23 01:07:31;;;;;;;;;;;;;;;;;;349782;28;972;-73
2022/06/23 01:07:58;;;;;;;;;;;;;;;;;;349859;28;987;-73
2022/06/23 01:08:16;;;;;;;;;;;;;;;;;;349901;28;913;-73
2022/06/23 01:08:31;;;;;;;;;;;;;;;;;;349965;28;1030;-73
2022/06/23 01:08:51;;;;;;;;;;;;;;;;;;350032;28;801;-73
2022/06/23 01:09:13;;;;;;;;;;;;;;;;;;349916;28;1011;-73
2022/06/23 01:09:39;;;;;;;;;;;;;;;;;;349958;28;912;-73
2022/06/23 01:09:56;;;;;;;;;;;;;;;;;;349977;28;873;-72
2022/06/23 01:10:06;;;;;;;;;;;;;;;;;;349923;28;1453;-72
2022/06/23 01:10:26;;;;;;;;;;;;;;;;;;351335;28;1014;-73
2022/06/23 01:10:53;;;;;;;;;;;;;;;;;;351381;28;940;-72
2022/06/23 01:11:08;;;;;;;;;;;;;;;;;;351408;28;1090;-72
2022/06/23 01:11:22;;;;;;;;;;;;;;;;;;351386;28;995;-73
2022/06/23 01:11:38;;;;;;;;;;;;;;;;;;351352;28;1004;-73
2022/06/23 01:11:54;;;;;;;;;;;;;;;;;;351329;28;968;-73
2022/06/23 01:12:13;;;;;;;;;;;;;;;;;;351389;28;932;-73
2022/06/23 01:12:35;;;;;;;;;;;;;;;;;;351279;28;916;-73
2022/06/23 01:12:50;;;;;;;;;;;;;;;;;;351375;28;960;-72
2022/06/23 01:13:06;;;;;;;;;;;;;;;;;;351293;28;912;-73
2022/06/23 01:13:23;;;;;;;;;;;;;;;;;;351395;28;1191;-73
2022/06/23 01:13:42;;;;;;;;;;;;;;;;;;351394;28;995;-73
2022/06/23 01:13:59;;;;;;;;;;;;;;;;;;351352;28;936;-73
2022/06/23 01:14:09;;;;;;;;;;;;;;;;;;351347;28;955;-73
2022/06/23 01:14:26;;;;;;;;;;;;;;;;;;351285;28;873;-73
2022/06/23 01:14:36;;;;;;;;;;;;;;;;;;351296;28;917;-73
2022/06/23 01:14:52;;;;;;;;;;;;;;;;;;351348;28;1000;-73
2022/06/23 01:15:35;;;;;;;;;;;;;;;;;;351402;28;897;-73
2022/06/23 01:15:58;;;;;;;;;;;;;;;;;;348448;28;905;-73
2022/06/23 01:16:13;;;;;;;;;;;;;;;;;;348358;28;1097;-73
2022/06/23 01:16:23;;;;;;;;;;;;;;;;;;348353;28;794;-73
2022/06/23 01:16:41;;;;;;;;;;;;;;;;;;348402;28;933;-73
2022/06/23 01:17:01;;;;;;;;;;;;;;;;;;348395;28;1095;-72
2022/06/23 01:17:14;;;;;;;;;;;;;;;;;;351393;28;975;-72
2022/06/23 01:17:27;;;;;;;;;;;;;;;;;;351276;28;1037;-73
2022/06/23 01:17:41;;;;;;;;;;;;;;;;;;351341;28;1117;-73
2022/06/23 01:18:10;;;;;;;;;;;;;;;;;;351407;28;785;-73
2022/06/23 01:18:23;;;;;;;;;;;;;;;;;;351335;28;964;-73
2022/06/23 01:18:42;;;;;;;;;;;;;;;;;;351233;28;939;-73
2022/06/23 01:18:57;;;;;;;;;;;;;;;;;;351356;28;1003;-73
2022/06/23 01:19:23;;;;;;;;;;;;;;;;;;351314;28;932;-73
2022/06/23 01:19:33;;;;;;;;;;;;;;;;;;351363;28;810;-73
2022/06/23 01:19:52;;;;;;;;;;;;;;;;;;351383;28;805;-72
2022/06/23 01:20:03;;;;;;;;;;;;;;;;;;350262;28;1413;-72
2022/06/23 01:20:31;;;;;;;;;;;;;;;;;;351346;28;971;-72
2022/06/23 01:20:50;;;;;;;;;;;;;;;;;;351391;28;796;-73
2022/06/23 01:21:12;;;;;;;;;;;;;;;;;;351283;28;1303;-72
2022/06/23 01:21:29;;;;;;;;;;;;;;;;;;351358;28;916;-72
2022/06/23 01:21:43;;;;;;;;;;;;;;;;;;351395;28;856;-73
2022/06/23 01:21:55;;;;;;;;;;;;;;;;;;351362;28;885;-73
2022/06/23 01:22:14;;;;;;;;;;;;;;;;;;351381;28;896;-73
2022/06/23 01:22:24;;;;;;;;;;;;;;;;;;351369;28;991;-73
2022/06/23 01:22:50;;;;;;;;;;;;;;;;;;351257;28;912;-73
2022/06/23 01:23:21;;;;;;;;;;;;;;;;;;351215;28;1185;-72
2022/06/23 01:23:42;;;;;;;;;;;;;;;;;;351223;28;908;-72
2022/06/23 01:23:57;;;;;;;;;;;;;;;;;;351266;28;913;-73
2022/06/23 01:24:29;;;;;;;;;;;;;;;;;;351222;28;896;-72
2022/06/23 01:24:46;;;;;;;;;;;;;;;;;;351204;28;1027;-72
2022/06/23 01:25:06;;;;;;;;;;;;;;;;;;351267;28;887;-73
2022/06/23 01:25:25;;;;;;;;;;;;;;;;;;351314;28;1143;-73
2022/06/23 01:25:47;;;;;;;;;;;;;;;;;;351302;28;939;-73
2022/06/23 01:25:58;;;;;;;;;;;;;;;;;;351340;28;952;-72
2022/06/23 01:26:27;;;;;;;;;;;;;;;;;;351369;28;983;-72
2022/06/23 01:26:48;;;;;;;;;;;;;;;;;;351273;28;916;-73
2022/06/23 01:27:17;;;;;;;;;;;;;;;;;;351397;28;789;-73
2022/06/23 01:27:36;;;;;;;;;;;;;;;;;;351328;28;928;-73
2022/06/23 01:27:57;;;;;;;;;;;;;;;;;;351371;28;924;-73
2022/06/23 01:28:15;;;;;;;;;;;;;;;;;;351356;28;821;-73
2022/06/23 01:28:27;;;;;;;;;;;;;;;;;;351338;28;1012;-72
2022/06/23 01:28:39;;;;;;;;;;;;;;;;;;351303;28;1536;-72
2022/06/23 01:28:56;;;;;;;;;;;;;;;;;;351318;28;982;-72
2022/06/23 01:29:20;;;;;;;;;;;;;;;;;;351419;28;833;-73
2022/06/23 01:29:42;;;;;;;;;;;;;;;;;;351351;28;904;-73
2022/06/23 01:30:02;;;;;;;;;;;;;;;;;;351399;28;825;-73
2022/06/23 01:30:13;;;;;;;;;;;;;;;;;;349964;28;913;-73
2022/06/23 01:30:26;;;;;;;;;;;;;;;;;;349977;28;1011;-73
2022/06/23 01:30:38;;;;;;;;;;;;;;;;;;349962;28;904;-72
2022/06/23 01:30:52;;;;;;;;;;;;;;;;;;349968;28;924;-72
2022/06/23 01:31:05;;;;;;;;;;;;;;;;;;349881;28;838;-73
2022/06/23 01:31:19;;;;;;;;;;;;;;;;;;349970;28;920;-73
2022/06/23 01:31:43;;;;;;;;;;;;;;;;;;349913;28;952;-72
2022/06/23 01:32:03;;;;;;;;;;;;;;;;;;349920;28;952;-73
2022/06/23 01:32:22;;;;;;;;;;;;;;;;;;349995;28;909;-72
2022/06/23 01:32:36;;;;;;;;;;;;;;;;;;349921;28;936;-72
2022/06/23 01:33:12;;;;;;;;;;;;;;;;;;349931;28;1004;-73
2022/06/23 01:33:28;;;;;;;;;;;;;;;;;;349936;28;948;-73
2022/06/23 01:33:44;;;;;;;;;;;;;;;;;;349984;28;1040;-72
2022/06/23 01:33:57;;;;;;;;;;;;;;;;;;350656;28;1604;-73
2022/06/23 01:34:15;;;;;;;;;;;;;;;;;;350623;28;1767;-72
2022/06/23 01:34:29;;;;;;;;;;;;;;;;;;351339;28;979;-73
2022/06/23 01:34:45;;;;;;;;;;;;;;;;;;351380;28;865;-73
2022/06/23 01:35:19;;;;;;;;;;;;;;;;;;351341;28;849;-73
2022/06/23 01:35:41;;;;;;;;;;;;;;;;;;348416;28;974;-73
2022/06/23 01:35:57;;;;;;;;;;;;;;;;;;351277;28;1016;-73
2022/06/23 01:36:07;;;;;;;;;;;;;;;;;;351404;28;801;-73
2022/06/23 01:36:20;;;;;;;;;;;;;;;;;;351438;28;995;-73
2022/06/23 01:36:46;;;;;;;;;;;;;;;;;;351310;28;979;-73
2022/06/23 01:37:16;;;;;;;;;;;;;;;;;;351392;28;964;-73
2022/06/23 01:37:50;;;;;;;;;;;;;;;;;;350710;28;1542;-72
2022/06/23 01:38:03;;;;;;;;;;;;;;;;;;347025;28;1048;-73
2022/06/23 01:38:40;;;;;;;;;;;;;;;;;;348004;28;1040;-73
2022/06/23 01:39:09;;;;;;;;;;;;;;;;;;348359;28;970;-72
2022/06/23 01:39:28;;;;;;;;;;;;;;;;;;348344;28;893;-73
2022/06/23 01:39:41;;;;;;;;;;;;;;;;;;348730;28;1004;-73
2022/06/23 01:39:52;;;;;;;;;;;;;;;;;;349912;28;892;-73
2022/06/23 01:40:16;;;;;;;;;;;;;;;;;;349590;28;1377;-73
2022/06/23 01:40:39;;;;;;;;;;;;;;;;;;349977;28;864;-72
2022/06/23 01:40:53;;;;;;;;;;;;;;;;;;349964;28;920;-72
2022/06/23 01:41:27;;;;;;;;;;;;;;;;;;349886;28;916;-73
2022/06/23 01:41:42;;;;;;;;;;;;;;;;;;349983;28;917;-73
2022/06/23 01:41:59;;;;;;;;;;;;;;;;;;349893;28;960;-73
2022/06/23 01:42:15;;;;;;;;;;;;;;;;;;350037;28;853;-72
2022/06/23 01:42:45;;;;;;;;;;;;;;;;;;349905;28;964;-73
2022/06/23 01:43:05;;;;;;;;;;;;;;;;;;349905;28;814;-72
2022/06/23 01:43:22;;;;;;;;;;;;;;;;;;349933;28;875;-73
2022/06/23 01:43:39;;;;;;;;;;;;;;;;;;349894;28;1000;-73
2022/06/23 01:43:58;;;;;;;;;;;;;;;;;;349603;28;1361;-72
2022/06/23 01:44:23;;;;;;;;;;;;;;;;;;349930;28;1000;-73
2022/06/23 01:45:09;;;;;;;;;;;;;;;;;;349928;28;921;-73
2022/06/23 01:45:30;;;;;;;;;;;;;;;;;;348349;28;968;-73
2022/06/23 01:45:51;;;;;;;;;;;;;;;;;;348410;28;842;-72
2022/06/23 01:46:06;;;;;;;;;;;;;;;;;;348382;28;988;-72
2022/06/23 01:46:21;;;;;;;;;;;;;;;;;;348342;28;988;-72
2022/06/23 01:46:35;;;;;;;;;;;;;;;;;;348421;28;937;-73
2022/06/23 01:46:48;;;;;;;;;;;;;;;;;;348402;28;929;-72
2022/06/23 01:47:00;;;;;;;;;;;;;;;;;;348353;28;913;-72
2022/06/23 01:47:19;;;;;;;;;;;;;;;;;;348390;28;1000;-72
2022/06/23 01:47:29;;;;;;;;;;;;;;;;;;348456;28;813;-72
2022/06/23 01:47:44;;;;;;;;;;;;;;;;;;348349;28;881;-73
2022/06/23 01:47:59;;;;;;;;;;;;;;;;;;348373;28;917;-73
2022/06/23 01:48:12;;;;;;;;;;;;;;;;;;348847;28;1113;-73
2022/06/23 01:49:05;;;;;;;;;;;;;;;;;;349945;28;790;-73
2022/06/23 01:49:20;;;;;;;;;;;;;;;;;;349952;28;972;-72
2022/06/23 01:49:33;;;;;;;;;;;;;;;;;;349892;28;1046;-72
2022/06/23 01:49:45;;;;;;;;;;;;;;;;;;349898;28;972;-72
2022/06/23 01:50:17;;;;;;;;;;;;;;;;;;350001;28;929;-73
2022/06/23 01:50:39;;;;;;;;;;;;;;;;;;349770;28;873;-73
2022/06/23 01:50:51;;;;;;;;;;;;;;;;;;349848;28;991;-72
2022/06/23 01:51:01;;;;;;;;;;;;;;;;;;349835;28;924;-73
2022/06/23 01:51:19;;;;;;;;;;;;;;;;;;349788;28;791;-73
2022/06/23 01:51:35;;;;;;;;;;;;;;;;;;349794;28;950;-72
2022/06/23 01:51:47;;;;;;;;;;;;;;;;;;349813;28;917;-73
2022/06/23 01:52:12;;;;;;;;;;;;;;;;;;349645;28;1120;-72
2022/06/23 01:52:22;;;;;;;;;;;;;;;;;;349882;28;925;-72
2022/06/23 01:52:33;;;;;;;;;;;;;;;;;;349979;28;861;-72
2022/06/23 01:52:50;;;;;;;;;;;;;;;;;;349871;28;956;-73
2022/06/23 01:53:22;;;;;;;;;;;;;;;;;;349944;28;929;-72
2022/06/23 01:53:34;;;;;;;;;;;;;;;;;;349902;28;896;-72
2022/06/23 01:53:45;;;;;;;;;;;;;;;;;;349965;28;794;-72
2022/06/23 01:54:07;;;;;;;;;;;;;;;;;;349859;28;1036;-72
2022/06/23 01:54:20;;;;;;;;;;;;;;;;;;349976;28;899;-72
2022/06/23 01:54:32;;;;;;;;;;;;;;;;;;349973;28;912;-72
2022/06/23 01:54:43;;;;;;;;;;;;;;;;;;350005;28;908;-72
2022/06/23 01:54:57;;;;;;;;;;;;;;;;;;349953;28;979;-73
2022/06/23 01:55:19;;;;;;;;;;;;;;;;;;349500;28;1366;-72
2022/06/23 01:55:46;;;;;;;;;;;;;;;;;;349895;28;979;-73
2022/06/23 01:56:03;;;;;;;;;;;;;;;;;;349892;28;920;-73
2022/06/23 01:56:16;;;;;;;;;;;;;;;;;;349923;28;995;-73
2022/06/23 01:56:36;;;;;;;;;;;;;;;;;;349879;28;928;-73
2022/06/23 01:57:06;;;;;;;;;;;;;;;;;;349868;28;1147;-73
2022/06/23 01:57:37;;;;;;;;;;;;;;;;;;349877;28;909;-73
2022/06/23 01:57:52;;;;;;;;;;;;;;;;;;349954;28;937;-72
2022/06/23 01:58:05;;;;;;;;;;;;;;;;;;349910;28;920;-72
2022/06/23 01:58:17;;;;;;;;;;;;;;;;;;349867;28;924;-73
2022/06/23 01:58:32;;;;;;;;;;;;;;;;;;349975;28;948;-72
2022/06/23 01:58:47;;;;;;;;;;;;;;;;;;349940;28;972;-72
2022/06/23 01:59:02;;;;;;;;;;;;;;;;;;349960;28;865;-72
2022/06/23 01:59:26;;;;;;;;;;;;;;;;;;349949;28;948;-72
2022/06/23 01:59:39;;;;;;;;;;;;;;;;;;350005;28;975;-73
2022/06/23 01:59:58;;;;;;;;;;;;;;;;;;349938;28;913;-72
2022/06/23 02:00:12;;;;;;;;;;;;;;;;;;349584;28;1434;-72
2022/06/23 02:00:25;;;;;;;;;;;;;;;;;;349849;28;937;-72